createdAt,value
2018-01-22T00:01:42.029Z,93.70
2018-01-22T00:04:10.222Z,94.00
2018-01-22T00:06:37.671Z,94.00
2018-01-22T00:09:05.910Z,93.50
2018-01-22T00:11:33.331Z,93.60
2018-01-22T00:14:00.756Z,93.70
2018-01-22T00:16:28.963Z,93.60
2018-01-22T00:18:56.392Z,93.60
2018-01-22T00:21:24.642Z,93.30
2018-01-22T00:23:52.064Z,93.30
2018-01-22T00:26:19.531Z,93.70
2018-01-22T00:28:46.966Z,93.60
2018-01-22T00:31:14.444Z,93.70
2018-01-22T00:33:41.852Z,94.00
2018-01-22T00:36:10.084Z,94.60
2018-01-22T00:38:37.594Z,94.50
2018-01-22T00:41:05.017Z,94.80
2018-01-22T00:43:32.452Z,94.80
2018-01-22T00:45:59.893Z,94.80
2018-01-22T00:48:27.344Z,95.00
2018-01-22T00:50:54.768Z,95.10
2018-01-22T00:53:22.973Z,94.80
2018-01-22T00:55:50.392Z,94.80
2018-01-22T00:58:18.593Z,94.70
2018-01-22T01:00:46.784Z,94.90
2018-01-22T01:03:14.212Z,94.90
2018-01-22T01:05:42.406Z,95.20
2018-01-22T01:08:09.832Z,95.20
2018-01-22T01:10:38.039Z,95.00
2018-01-22T01:13:05.477Z,94.90
2018-01-22T01:15:33.674Z,95.10
2018-01-22T01:18:01.101Z,95.00
2018-01-22T01:20:29.289Z,95.80
2018-01-22T01:22:56.718Z,95.80
2018-01-22T01:25:24.149Z,96.10
2018-01-22T01:27:51.583Z,96.10
2018-01-22T01:30:19.008Z,95.90
2018-01-22T01:32:47.208Z,95.10
2018-01-22T01:35:14.633Z,95.10
2018-01-22T01:37:42.850Z,95.50
2018-01-22T01:40:10.264Z,95.40
2018-01-22T01:42:38.483Z,95.00
2018-01-22T01:45:05.896Z,95.00
2018-01-22T01:47:34.108Z,94.70
2018-01-22T01:50:01.542Z,95.00
2018-01-22T01:52:29.730Z,94.70
2018-01-22T01:54:57.174Z,94.60
2018-01-22T01:57:25.365Z,94.40
2018-01-22T01:59:52.816Z,94.40
2018-01-22T02:02:20.242Z,94.30
2018-01-22T02:04:47.681Z,93.90
2018-01-22T02:07:15.105Z,94.60
2018-01-22T02:09:42.546Z,94.60
2018-01-22T02:12:09.977Z,94.50
2018-01-22T02:14:38.182Z,94.50
2018-01-22T02:17:05.615Z,94.40
2018-01-22T02:19:33.805Z,94.40
2018-01-22T02:22:01.244Z,94.40
2018-01-22T02:24:29.450Z,94.10
2018-01-22T02:26:56.889Z,94.00
2018-01-22T02:29:24.315Z,94.10
2018-01-22T02:31:51.745Z,94.00
2018-01-22T02:34:19.187Z,94.10
2018-01-22T02:36:46.612Z,94.40
2018-01-22T02:39:14.820Z,94.70
2018-01-22T02:41:42.273Z,94.60
2018-01-22T02:44:09.711Z,94.60
2018-01-22T02:46:37.915Z,95.60
2018-01-22T02:49:05.344Z,95.60
2018-01-22T02:51:32.768Z,95.60
2018-01-22T02:54:00.205Z,95.40
2018-01-22T02:56:27.640Z,95.20
2018-01-22T02:58:55.153Z,95.30
2018-01-22T03:01:22.569Z,95.20
2018-01-22T03:03:50.769Z,95.90
2018-01-22T03:06:18.198Z,95.90
2018-01-22T03:08:45.649Z,96.00
2018-01-22T03:11:13.078Z,95.70
2018-01-22T03:13:40.510Z,95.80
2018-01-22T03:16:07.934Z,96.00
2018-01-22T03:18:35.371Z,95.50
2018-01-22T03:21:02.815Z,95.10
2018-01-22T03:23:30.241Z,95.30
2018-01-22T03:25:58.452Z,95.80
2018-01-22T03:28:25.871Z,95.80
2018-01-22T03:30:54.089Z,96.90
2018-01-22T03:33:21.519Z,96.80
2018-01-22T03:35:50.526Z,96.50
2018-01-22T03:38:18.704Z,96.50
2018-01-22T03:40:46.139Z,96.50
2018-01-22T03:43:14.341Z,97.00
2018-01-22T03:45:41.773Z,96.90
2018-01-22T03:48:09.968Z,96.70
2018-01-22T03:50:37.417Z,96.70
2018-01-22T03:53:04.836Z,97.00
2018-01-22T03:55:32.275Z,96.50
2018-01-22T03:57:59.811Z,96.00
2018-01-22T04:00:27.224Z,96.00
2018-01-22T04:02:55.417Z,95.80
2018-01-22T04:05:22.866Z,95.80
2018-01-22T04:07:51.073Z,96.00
2018-01-22T04:10:18.494Z,96.00
2018-01-22T04:12:46.675Z,96.70
2018-01-22T04:15:14.880Z,97.00
2018-01-22T04:17:42.318Z,97.00
2018-01-22T04:20:09.758Z,97.10
2018-01-22T04:22:37.951Z,97.80
2018-01-22T04:25:05.384Z,97.80
2018-01-22T04:27:33.576Z,98.00
2018-01-22T04:30:01.009Z,97.90
2018-01-22T04:32:28.500Z,97.90
2018-01-22T04:34:55.937Z,97.90
2018-01-22T04:37:24.133Z,97.10
2018-01-22T04:39:51.573Z,97.10
2018-01-22T04:42:19.771Z,96.90
2018-01-22T04:44:47.188Z,96.90
2018-01-22T04:47:14.617Z,96.90
2018-01-22T04:49:42.809Z,96.70
2018-01-22T04:52:10.257Z,96.70
2018-01-22T04:54:37.689Z,97.00
2018-01-22T04:57:05.101Z,96.80
2018-01-22T04:59:33.315Z,97.10
2018-01-22T05:02:00.769Z,97.10
2018-01-22T05:04:28.184Z,96.80
2018-01-22T05:06:56.392Z,96.40
2018-01-22T05:09:23.808Z,96.20
2018-01-22T05:11:51.237Z,96.20
2018-01-22T05:14:18.688Z,96.40
2018-01-22T05:16:46.132Z,96.50
2018-01-22T05:19:13.586Z,96.30
2018-01-22T05:21:41.020Z,96.50
2018-01-22T05:24:09.218Z,97.10
2018-01-22T05:26:36.684Z,97.10
2018-01-22T05:29:04.118Z,97.20
2018-01-22T05:31:31.734Z,97.20
2018-01-22T05:33:59.183Z,97.80
2018-01-22T05:36:26.636Z,97.50
2018-01-22T05:38:54.068Z,97.00
2018-01-22T05:41:21.492Z,96.90
2018-01-22T05:43:49.692Z,96.60
2018-01-22T05:46:17.120Z,96.60
2018-01-22T05:48:45.308Z,96.90
2018-01-22T05:51:12.738Z,96.90
2018-01-22T05:53:40.169Z,97.00
2018-01-22T05:56:07.616Z,97.00
2018-01-22T05:58:35.036Z,97.00
2018-01-22T06:01:03.242Z,96.90
2018-01-22T06:03:31.584Z,96.90
2018-01-22T06:05:59.786Z,97.70
2018-01-22T06:08:27.205Z,97.70
2018-01-22T06:10:55.410Z,97.80
2018-01-22T06:13:22.842Z,97.80
2018-01-22T06:15:51.047Z,98.50
2018-01-22T06:18:18.461Z,98.30
2018-01-22T06:20:45.910Z,98.60
2018-01-22T06:23:13.343Z,98.90
2018-01-22T06:25:40.784Z,99.30
2018-01-22T06:28:08.198Z,99.10
2018-01-22T06:30:36.403Z,99.30
2018-01-22T06:33:03.844Z,99.30
2018-01-22T06:35:31.872Z,99.10
2018-01-22T06:37:59.318Z,98.90
2018-01-22T06:40:27.265Z,98.80
2018-01-22T06:42:54.709Z,99.00
2018-01-22T06:45:22.175Z,99.20
2018-01-22T06:47:49.626Z,99.10
2018-01-22T06:50:17.060Z,98.70
2018-01-22T06:52:45.260Z,99.20
2018-01-22T06:55:12.684Z,98.80
2018-01-22T06:57:40.893Z,98.50
2018-01-22T07:00:08.324Z,98.70
2018-01-22T07:02:36.524Z,98.70
2018-01-22T07:05:03.960Z,98.70
2018-01-22T07:07:31.891Z,98.70
2018-01-22T07:09:59.308Z,99.30
2018-01-22T07:12:26.753Z,99.10
2018-01-22T07:14:54.943Z,99.20
2018-01-22T07:17:22.376Z,99.10
2018-01-22T07:19:50.572Z,98.80
2018-01-22T07:22:18.005Z,98.80
2018-01-22T07:24:46.208Z,98.80
2018-01-22T07:27:13.638Z,98.80
2018-01-22T07:29:41.877Z,98.60
2018-01-22T07:32:09.324Z,98.60
2018-01-22T07:34:36.744Z,98.40
2018-01-22T07:37:04.177Z,98.30
2018-01-22T07:39:31.900Z,98.30
2018-01-22T07:41:59.338Z,98.30
2018-01-22T07:44:26.765Z,98.20
2018-01-22T07:46:54.975Z,98.00
2018-01-22T07:49:22.388Z,97.90
2018-01-22T07:51:50.584Z,98.60
2018-01-22T07:54:18.015Z,98.60
2018-01-22T07:56:45.451Z,98.60
2018-01-22T07:59:12.880Z,98.30
2018-01-22T08:01:40.341Z,98.20
2018-01-22T08:04:07.768Z,98.40
2018-01-22T08:06:35.207Z,98.40
2018-01-22T08:09:03.401Z,98.30
2018-01-22T08:11:32.520Z,98.10
2018-01-22T08:13:59.944Z,98.10
2018-01-22T08:16:28.163Z,98.40
2018-01-22T08:18:55.625Z,98.30
2018-01-22T08:21:23.030Z,98.70
2018-01-22T08:23:51.225Z,98.70
2018-01-22T08:26:18.652Z,98.60
2018-01-22T08:28:46.087Z,98.60
2018-01-22T08:31:13.519Z,98.60
2018-01-22T08:33:40.947Z,98.70
2018-01-22T08:36:09.142Z,99.10
2018-01-22T08:38:36.575Z,99.10
2018-01-22T08:41:04.773Z,98.90
2018-01-22T08:43:32.209Z,98.90
2018-01-22T08:46:00.428Z,98.80
2018-01-22T08:48:27.876Z,98.80
2018-01-22T08:50:55.302Z,98.90
2018-01-22T08:53:23.498Z,99.20
2018-01-22T08:55:50.923Z,99.20
2018-01-22T08:58:19.138Z,99.20
2018-01-22T09:00:46.574Z,99.10
2018-01-22T09:03:14.765Z,99.20
2018-01-22T09:05:42.238Z,98.80
2018-01-22T09:08:09.657Z,99.00
2018-01-22T09:10:37.080Z,99.60
2018-01-22T09:13:04.524Z,99.70
2018-01-22T09:15:31.973Z,99.50
2018-01-22T09:17:59.424Z,99.70
2018-01-22T09:20:26.848Z,99.60
2018-01-22T09:22:54.296Z,99.90
2018-01-22T09:25:21.726Z,99.90
2018-01-22T09:27:49.156Z,99.90
2018-01-22T09:30:16.581Z,99.90
2018-01-22T09:32:44.013Z,99.90
2018-01-22T09:35:12.224Z,99.90
2018-01-22T09:37:39.662Z,99.90
2018-01-22T09:40:07.096Z,99.80
2018-01-22T09:42:34.528Z,99.10
2018-01-22T09:45:01.969Z,99.30
2018-01-22T09:47:29.397Z,99.40
2018-01-22T09:49:56.824Z,99.90
2018-01-22T09:52:24.261Z,99.90
2018-01-22T09:54:51.689Z,99.90
2018-01-22T09:57:19.133Z,99.90
2018-01-22T09:59:46.561Z,99.90
2018-01-22T10:02:14.756Z,99.90
2018-01-22T10:04:42.203Z,99.90
2018-01-22T10:07:10.397Z,99.50
2018-01-22T10:09:38.245Z,99.50
2018-01-22T10:12:05.682Z,99.90
2018-01-22T10:14:33.105Z,99.00
2018-01-22T10:17:00.550Z,99.00
2018-01-22T10:19:27.990Z,98.10
2018-01-22T10:21:55.420Z,98.20
2018-01-22T10:24:23.635Z,99.10
2018-01-22T10:26:51.072Z,99.10
2018-01-22T10:29:18.529Z,99.40
2018-01-22T10:31:46.786Z,99.00
2018-01-22T10:34:14.181Z,99.00
2018-01-22T10:36:41.613Z,98.70
2018-01-22T10:39:09.066Z,98.60
2018-01-22T10:41:36.501Z,99.20
2018-01-22T10:44:03.943Z,99.30
2018-01-22T10:46:32.888Z,99.30
2018-01-22T10:49:00.337Z,99.00
2018-01-22T10:51:27.759Z,99.00
2018-01-22T10:53:55.210Z,98.50
2018-01-22T10:56:22.678Z,99.30
2018-01-22T10:58:50.100Z,99.20
2018-01-22T11:01:17.544Z,98.90
2018-01-22T11:03:45.121Z,98.70
2018-01-22T11:06:12.562Z,98.90
2018-01-22T11:08:40.009Z,98.40
2018-01-22T11:11:07.445Z,98.30
2018-01-22T11:13:35.643Z,98.40
2018-01-22T11:16:08.619Z,98.30
2018-01-22T11:18:36.053Z,98.60
2018-01-22T11:21:04.266Z,98.70
2018-01-22T11:23:32.124Z,98.70
2018-01-22T11:25:59.561Z,98.00
2018-01-22T11:28:27.840Z,97.70
2018-01-22T11:30:55.257Z,97.70
2018-01-22T11:33:22.688Z,97.10
2018-01-22T11:35:50.112Z,97.20
2018-01-22T11:38:18.328Z,96.90
2018-01-22T11:40:45.752Z,96.90
2018-01-22T11:43:13.184Z,96.70
2018-01-22T11:45:40.632Z,96.40
2018-01-22T11:48:08.067Z,96.10
2018-01-22T11:50:35.513Z,95.90
2018-01-22T11:53:02.943Z,96.80
2018-01-22T11:55:30.373Z,97.00
2018-01-22T11:57:57.792Z,96.20
2018-01-22T12:00:25.233Z,94.90
2018-01-22T12:02:52.659Z,95.20
2018-01-22T12:05:20.108Z,95.80
2018-01-22T12:07:48.556Z,96.30
2018-01-22T12:10:15.984Z,96.20
2018-01-22T12:12:43.449Z,96.60
2018-01-22T12:15:10.864Z,96.30
2018-01-22T12:17:39.071Z,97.00
2018-01-22T12:20:06.509Z,97.00
2018-01-22T12:22:34.683Z,96.10
2018-01-22T12:25:02.131Z,96.10
2018-01-22T12:27:30.337Z,96.90
2018-01-22T12:29:57.780Z,96.90
2018-01-22T12:32:25.205Z,96.20
2018-01-22T12:34:52.656Z,96.40
2018-01-22T12:37:20.116Z,96.90
2018-01-22T12:39:47.541Z,97.70
2018-01-22T12:42:14.970Z,97.70
2018-01-22T12:44:42.404Z,96.80
2018-01-22T12:47:10.610Z,97.00
2018-01-22T12:49:38.044Z,97.00
2018-01-22T12:52:05.649Z,96.20
2018-01-22T12:54:33.221Z,95.30
2018-01-22T12:57:00.655Z,95.00
2018-01-22T12:59:28.087Z,94.80
2018-01-22T13:01:55.521Z,94.30
2018-01-22T13:04:23.788Z,94.80
2018-01-22T13:06:51.215Z,94.20
2018-01-22T13:09:18.652Z,95.10
2018-01-22T13:11:46.076Z,94.80
2018-01-22T13:14:14.301Z,94.50
2018-01-22T13:16:41.721Z,94.50
2018-01-22T13:19:09.149Z,92.10
2018-01-22T13:21:36.598Z,91.70
2018-01-22T13:24:04.019Z,90.90
2018-01-22T13:26:32.380Z,92.00
2018-01-22T13:28:59.808Z,91.90
2018-01-22T13:31:28.015Z,92.50
2018-01-22T13:33:55.444Z,92.50
2018-01-22T13:36:23.648Z,92.90
2018-01-22T13:38:51.078Z,92.90
2018-01-22T13:41:19.285Z,93.60
2018-01-22T13:43:46.746Z,93.60
2018-01-22T13:46:14.321Z,94.20
2018-01-22T13:48:41.767Z,94.00
2018-01-22T13:51:09.188Z,93.60
2018-01-22T13:53:37.385Z,93.90
2018-01-22T13:56:04.827Z,93.90
2018-01-22T13:58:32.926Z,93.40
2018-01-22T14:01:00.377Z,93.10
2018-01-22T14:03:27.795Z,93.10
2018-01-22T14:05:56.127Z,93.30
2018-01-22T14:08:23.553Z,93.20
2018-01-22T14:10:50.999Z,93.30
2018-01-22T14:13:19.181Z,94.20
2018-01-22T14:15:47.398Z,94.20
2018-01-22T14:18:14.828Z,94.20
2018-01-22T14:20:42.268Z,93.80
2018-01-22T14:23:10.464Z,93.30
2018-01-22T14:25:37.899Z,93.20
2018-01-22T14:28:06.105Z,93.20
2018-01-22T14:30:33.571Z,93.20
2018-01-22T14:33:01.015Z,93.90
2018-01-22T14:35:28.437Z,94.00
2018-01-22T14:37:56.629Z,94.90
2018-01-22T14:40:24.080Z,94.90
2018-01-22T14:42:52.306Z,95.60
2018-01-22T14:45:19.748Z,95.60
2018-01-22T14:47:47.182Z,95.40
2018-01-22T14:50:14.621Z,95.00
2018-01-22T14:52:42.832Z,95.20
2018-01-22T14:55:10.972Z,95.20
2018-01-22T14:57:39.388Z,95.40
2018-01-22T15:00:06.847Z,95.40
2018-01-22T15:02:34.316Z,95.30
2018-01-22T15:05:01.740Z,95.30
2018-01-22T15:07:29.174Z,94.90
2018-01-22T15:09:57.388Z,94.90
2018-01-22T15:12:24.828Z,94.90
2018-01-22T15:14:52.254Z,94.40
2018-01-22T15:17:19.714Z,94.10
2018-01-22T15:19:47.145Z,94.10
2018-01-22T15:22:14.577Z,93.60
2018-01-22T15:24:42.009Z,93.90
2018-01-22T15:27:09.457Z,93.60
2018-01-22T15:29:37.647Z,95.00
2018-01-22T15:32:05.843Z,95.00
2018-01-22T15:34:33.274Z,95.00
2018-01-22T15:37:01.512Z,94.90
2018-01-22T15:39:28.926Z,94.90
2018-01-22T15:41:56.372Z,95.20
2018-01-22T15:44:23.817Z,94.30
2018-01-22T15:46:51.234Z,93.60
2018-01-22T15:49:18.657Z,94.10
2018-01-22T15:51:46.096Z,94.10
2018-01-22T15:54:13.548Z,94.00
2018-01-22T15:56:41.764Z,94.40
2018-01-22T15:59:09.196Z,94.30
2018-01-22T16:01:36.645Z,94.30
2018-01-22T16:04:04.752Z,94.70
2018-01-22T16:06:32.501Z,95.00
2018-01-22T16:08:59.948Z,95.30
2018-01-22T16:11:34.579Z,95.20
2018-01-22T16:14:01.996Z,95.00
2018-01-22T16:16:29.441Z,95.30
2018-01-22T16:18:56.869Z,95.10
2018-01-22T16:21:24.297Z,95.40
2018-01-22T16:23:51.759Z,96.10
2018-01-22T16:26:19.216Z,95.70
2018-01-22T16:28:47.407Z,95.70
2018-01-22T16:31:14.852Z,95.70
2018-01-22T16:33:42.281Z,96.20
2018-01-22T16:36:10.503Z,96.00
2018-01-22T16:38:37.919Z,96.00
2018-01-22T16:41:06.112Z,96.60
2018-01-22T16:43:33.553Z,96.50
2018-01-22T16:46:01.761Z,96.30
2018-01-22T16:48:29.201Z,96.30
2018-01-22T16:50:56.633Z,95.80
2018-01-22T16:53:24.833Z,95.80
2018-01-22T16:55:52.273Z,95.70
2018-01-22T16:58:20.470Z,95.50
2018-01-22T17:00:47.911Z,95.50
2018-01-22T17:03:16.112Z,96.10
2018-01-22T17:05:43.555Z,96.00
2018-01-22T17:08:10.983Z,96.60
2018-01-22T17:10:39.184Z,96.30
2018-01-22T17:13:06.617Z,96.30
2018-01-22T17:15:34.830Z,96.20
2018-01-22T17:18:02.261Z,96.20
2018-01-22T17:20:30.460Z,96.40
2018-01-22T17:22:57.913Z,96.40
2018-01-22T17:25:25.350Z,96.50
2018-01-22T17:27:53.553Z,96.70
2018-01-22T17:30:20.989Z,96.40
2018-01-22T17:32:48.483Z,96.30
2018-01-22T17:35:15.941Z,96.10
2018-01-22T17:37:43.399Z,95.70
2018-01-22T17:40:10.829Z,95.50
2018-01-22T17:42:38.278Z,95.10
2018-01-22T17:45:06.512Z,95.50
2018-01-22T17:47:33.963Z,95.40
2018-01-22T17:50:01.411Z,95.30
2018-01-22T17:52:28.840Z,95.00
2018-01-22T17:54:56.309Z,95.30
2018-01-22T17:57:23.727Z,95.90
2018-01-22T17:59:51.938Z,96.20
2018-01-22T18:02:19.391Z,96.20
2018-01-22T18:04:46.813Z,96.30
2018-01-22T18:07:15.020Z,96.50
2018-01-22T18:09:42.481Z,96.80
2018-01-22T18:12:09.924Z,96.20
2018-01-22T18:14:37.355Z,96.20
2018-01-22T18:17:04.805Z,95.60
2018-01-22T18:19:33.425Z,95.80
2018-01-22T18:22:00.901Z,95.80
2018-01-22T18:24:28.333Z,96.10
2018-01-22T18:26:55.781Z,95.90
2018-01-22T18:29:23.979Z,95.60
2018-01-22T18:31:51.412Z,95.60
2018-01-22T18:34:19.632Z,96.30
2018-01-22T18:36:47.055Z,96.30
2018-01-22T18:39:15.277Z,96.40
2018-01-22T18:41:42.730Z,96.30
2018-01-22T18:44:10.169Z,96.50
2018-01-22T18:46:37.596Z,96.00
2018-01-22T18:49:05.835Z,96.50
2018-01-22T18:51:33.279Z,96.50
2018-01-22T18:54:00.726Z,97.10
2018-01-22T18:56:28.157Z,97.20
2018-01-22T18:58:55.647Z,96.80
2018-01-22T19:01:23.044Z,96.30
2018-01-22T19:03:50.677Z,96.00
2018-01-22T19:06:18.421Z,96.30
2018-01-22T19:08:46.789Z,96.20
2018-01-22T19:11:14.537Z,96.40
2018-01-22T19:13:42.756Z,96.80
2018-01-22T19:16:11.317Z,96.50
2018-01-22T19:18:41.292Z,96.20
2018-01-22T19:21:09.684Z,96.20
2018-01-22T19:23:38.121Z,96.20
2018-01-22T19:26:05.899Z,96.10
2018-01-22T19:28:34.140Z,97.20
2018-01-22T19:33:36.325Z,97.30
2018-01-22T19:36:03.768Z,97.30
2018-01-22T19:38:31.386Z,97.50
2018-01-22T19:40:58.817Z,97.20
2018-01-22T19:43:26.261Z,97.10
2018-01-22T19:45:54.632Z,96.50
2018-01-22T19:48:22.076Z,96.60
2018-01-22T19:50:49.654Z,96.30
2018-01-22T19:53:17.335Z,96.30
2018-01-22T19:55:44.762Z,96.70
2018-01-22T19:58:12.197Z,97.10
2018-01-22T20:00:40.390Z,96.60
2018-01-22T20:03:07.860Z,96.60
2018-01-22T20:05:35.293Z,96.90
2018-01-22T20:08:02.738Z,96.50
2018-01-22T20:10:30.942Z,96.90
2018-01-22T20:12:58.367Z,96.80
2018-01-22T20:15:26.584Z,96.70
2018-01-22T20:17:54.017Z,96.60
2018-01-22T20:20:21.513Z,97.10
2018-01-22T20:22:48.942Z,96.70
2018-01-22T20:25:16.400Z,96.80
2018-01-22T20:27:44.824Z,96.40
2018-01-22T20:30:12.256Z,96.40
2018-01-22T20:32:39.692Z,96.20
2018-01-22T20:35:07.140Z,96.30
2018-01-22T20:37:35.341Z,96.00
2018-01-22T20:40:02.795Z,96.00
2018-01-22T20:42:30.218Z,96.40
2018-01-22T20:44:58.416Z,96.80
2018-01-22T20:47:25.850Z,96.70
2018-01-22T20:49:54.053Z,97.10
2018-01-22T20:52:21.492Z,97.10
2018-01-22T20:54:49.703Z,96.30
2018-01-22T20:57:17.125Z,96.30
2018-01-22T20:59:45.329Z,96.70
2018-01-22T21:02:12.778Z,96.70
2018-01-22T21:04:40.219Z,96.70
2018-01-22T21:07:07.644Z,96.50
2018-01-22T21:09:35.462Z,96.20
2018-01-22T21:12:02.891Z,96.00
2018-01-22T21:14:31.092Z,96.20
2018-01-22T21:16:58.516Z,96.20
2018-01-22T21:19:27.107Z,96.40
2018-01-22T21:21:54.516Z,96.40
2018-01-22T21:24:21.984Z,95.30
2018-01-22T21:26:49.420Z,96.50
2018-01-22T21:29:16.856Z,96.80
2018-01-22T21:31:44.291Z,96.50
2018-01-22T21:34:12.547Z,96.30
2018-01-22T21:36:39.972Z,96.30
2018-01-22T21:39:07.413Z,95.90
2018-01-22T21:41:34.849Z,95.80
2018-01-22T21:44:02.306Z,96.10
2018-01-22T21:46:30.581Z,96.20
2018-01-22T21:48:58.799Z,95.80
2018-01-22T21:51:26.230Z,95.80
2018-01-22T21:53:53.669Z,95.90
2018-01-22T21:56:21.110Z,95.70
2018-01-22T21:58:49.362Z,95.80
2018-01-22T22:01:16.780Z,95.80
2018-01-22T22:03:44.217Z,96.10
2018-01-22T22:06:11.749Z,96.30
2018-01-22T22:08:39.948Z,97.30
2018-01-22T22:11:08.157Z,96.60
2018-01-22T22:13:35.581Z,96.60
2018-01-22T22:16:03.944Z,96.50
2018-01-22T22:18:31.797Z,96.50
2018-01-22T22:21:00.238Z,96.70
2018-01-22T22:23:28.233Z,96.70
2018-01-22T22:25:56.121Z,96.70
2018-01-22T22:28:25.666Z,96.30
2018-01-22T22:30:53.506Z,96.20
2018-01-22T22:33:21.547Z,96.00
2018-01-22T22:35:49.184Z,95.60
2018-01-22T22:38:16.803Z,96.20
2018-01-22T22:40:45.005Z,96.40
2018-01-22T22:43:12.449Z,96.40
2018-01-22T22:45:39.903Z,96.10
2018-01-22T22:48:08.105Z,95.80
2018-01-22T22:50:35.545Z,95.80
2018-01-22T22:53:02.985Z,95.90
2018-01-22T22:55:31.203Z,96.20
2018-01-22T22:57:58.640Z,96.20
2018-01-22T23:00:26.077Z,96.30
2018-01-22T23:02:54.273Z,95.40
2018-01-22T23:05:21.734Z,95.40
2018-01-22T23:07:49.169Z,95.80
2018-01-22T23:10:17.375Z,95.30
2018-01-22T23:12:44.799Z,95.30
2018-01-22T23:15:13.014Z,95.10
2018-01-22T23:17:40.474Z,95.10
2018-01-22T23:20:07.908Z,95.10
2018-01-22T23:22:35.338Z,95.70
2018-01-22T23:25:03.555Z,96.20
2018-01-22T23:27:30.985Z,96.20
2018-01-22T23:29:58.429Z,95.90
2018-01-22T23:32:26.643Z,95.80
2018-01-22T23:34:54.078Z,95.80
2018-01-22T23:37:22.288Z,95.60
2018-01-22T23:39:49.725Z,95.60
2018-01-22T23:42:17.166Z,95.60
2018-01-22T23:44:45.394Z,96.30
2018-01-22T23:47:12.812Z,96.30
2018-01-22T23:49:40.252Z,96.10
2018-01-22T23:52:08.456Z,95.30
2018-01-22T23:54:35.902Z,95.60
2018-01-22T23:57:03.342Z,95.10
2018-01-22T23:59:31.937Z,95.50
